Beaver, Arkansas
Current Conditions -  °F | °C
As of 12:57 PM on Saturday 25 Oct 2014 (Local Time) from KROG Reporting Station
Clear Clear  
Wind Chill: 77°   Ceiling: Unl
Heat Index: 79°   Visibility: 10mi
Dew Point: 63°   Wind: 8mph
Humidity: 62%   Direction: 240°WSW
Pressure: 30.11"   Gusts: NA
Location:  36.47°N, 93.77°W
Report Text: KROG 251757Z 24007KT 10SM CLR 25/17 A3011 RMK AO2 SLP184 T02500172 10250 20161 58010
Loading
Personal Weather Stations






























Interactive Weather Map
Tropical Storm Tracking
New forecast layout! Learn more

10-Day Weather Forecast

Advertisements
Track Severe Weather on mobile